createdAt,value
2019-05-12T00:00:29.469Z,3.73
2019-05-12T00:02:59.288Z,4.33
2019-05-12T00:05:27.945Z,4.23
2019-05-12T00:07:55.954Z,3.20
2019-05-12T00:10:23.720Z,4.00
2019-05-12T00:12:51.534Z,3.67
2019-05-12T00:15:19.730Z,3.33
2019-05-12T00:17:48.306Z,3.27
2019-05-12T00:20:18.211Z,3.67
2019-05-12T00:22:49.295Z,3.20
2019-05-12T00:25:18.221Z,3.30
2019-05-12T00:27:48.462Z,3.60
2019-05-12T00:30:38.473Z,3.60
2019-05-12T00:33:08.919Z,3.37
2019-05-12T00:35:38.042Z,3.40
2019-05-12T00:38:05.672Z,3.40
2019-05-12T00:40:33.531Z,3.60
2019-05-12T00:43:01.331Z,3.07
2019-05-12T00:45:29.574Z,3.50
2019-05-12T00:47:58.329Z,3.43
2019-05-12T00:50:28.643Z,3.30
2019-05-12T00:52:57.946Z,3.27
2019-05-12T00:55:25.826Z,2.90
2019-05-12T00:57:53.584Z,3.20
2019-05-12T01:00:21.484Z,3.07
2019-05-12T01:02:49.257Z,2.17
2019-05-12T01:05:17.743Z,2.83
2019-05-12T01:07:45.557Z,2.70
2019-05-12T01:10:13.453Z,2.73
2019-05-12T01:12:41.350Z,1.90
2019-05-12T01:15:09.620Z,2.00
2019-05-12T01:17:38.402Z,2.70
2019-05-12T01:20:09.037Z,2.20
2019-05-12T01:22:38.223Z,2.40
2019-05-12T01:25:08.555Z,2.50
2019-05-12T01:27:38.136Z,2.53
2019-05-12T01:30:08.722Z,2.60
2019-05-12T01:32:38.383Z,3.30
2019-05-12T01:35:08.154Z,2.60
2019-05-12T01:37:38.355Z,3.30
2019-05-12T01:40:09.190Z,3.33
2019-05-12T01:42:38.205Z,3.20
2019-05-12T01:45:09.227Z,2.93
2019-05-12T01:47:38.253Z,3.37
2019-05-12T01:50:09.197Z,3.40
2019-05-12T01:52:38.591Z,2.70
2019-05-12T01:55:08.188Z,3.47
2019-05-12T01:57:38.573Z,3.63
2019-05-12T02:00:09.036Z,3.40
2019-05-12T02:02:38.601Z,3.03
2019-05-12T02:05:08.968Z,3.57
2019-05-12T02:07:48.988Z,3.43
2019-05-12T02:10:18.108Z,3.50
2019-05-12T02:12:46.043Z,3.50
2019-05-12T02:15:18.399Z,3.53
2019-05-12T02:17:48.119Z,3.03
2019-05-12T02:20:18.062Z,3.10
2019-05-12T02:22:47.734Z,3.40
2019-05-12T02:25:18.395Z,3.70
2019-05-12T02:27:47.609Z,3.30
2019-05-12T02:30:20.292Z,3.53
2019-05-12T02:32:53.098Z,3.40
2019-05-12T02:35:16.605Z,3.40
2019-05-12T02:37:45.187Z,3.60
2019-05-12T02:40:15.068Z,3.43
2019-05-12T02:42:46.279Z,3.80
2019-05-12T02:45:15.716Z,3.30
2019-05-12T02:47:45.663Z,3.63
2019-05-12T02:50:17.317Z,3.67
2019-05-12T02:52:45.484Z,3.57
2019-05-12T02:55:14.997Z,3.70
2019-05-12T02:57:45.220Z,4.00
2019-05-12T03:00:15.939Z,3.33
2019-05-12T03:02:46.146Z,3.47
2019-05-12T03:05:14.901Z,3.40
2019-05-12T03:07:45.781Z,3.50
2019-05-12T03:10:14.578Z,3.53
2019-05-12T03:12:44.971Z,3.60
2019-05-12T03:15:15.221Z,3.33
2019-05-12T03:17:44.310Z,3.60
2019-05-12T03:20:15.033Z,3.63
2019-05-12T03:22:44.542Z,3.30
2019-05-12T03:25:20.832Z,3.20
2019-05-12T03:27:44.216Z,3.00
2019-05-12T03:30:12.470Z,3.07
2019-05-12T03:32:40.394Z,3.73
2019-05-12T03:35:09.246Z,3.57
2019-05-12T03:37:37.439Z,3.07
2019-05-12T03:40:05.952Z,3.40
2019-05-12T03:42:35.398Z,3.30
2019-05-12T03:45:04.827Z,3.50
2019-05-12T03:47:35.527Z,3.03
2019-05-12T03:50:04.653Z,3.07
2019-05-12T03:52:34.919Z,3.03
2019-05-12T03:55:04.984Z,3.23
2019-05-12T03:57:34.289Z,2.90
2019-05-12T04:00:01.131Z,3.00
2019-05-12T04:02:28.890Z,3.00
2019-05-12T04:04:56.677Z,3.00
2019-05-12T04:07:24.551Z,2.80
2019-05-12T04:09:54.629Z,3.23
2019-05-12T04:12:25.177Z,2.87
2019-05-12T04:14:54.850Z,3.00
2019-05-12T04:17:24.212Z,2.80
2019-05-12T04:19:51.054Z,2.73
2019-05-12T04:22:18.822Z,2.77
2019-05-12T04:24:46.573Z,3.03
2019-05-12T04:27:15.223Z,3.20
2019-05-12T04:29:44.136Z,2.73
2019-05-12T04:32:14.394Z,3.00
2019-05-12T04:34:44.549Z,2.90
2019-05-12T04:37:14.566Z,2.80
2019-05-12T04:39:41.165Z,2.97
2019-05-12T04:42:08.900Z,2.97
2019-05-12T04:44:36.968Z,2.93
2019-05-12T04:47:07.773Z,2.77
2019-05-12T04:49:35.609Z,3.20
2019-05-12T04:52:05.308Z,2.77
2019-05-12T04:54:35.543Z,3.00
2019-05-12T04:57:04.161Z,3.13
2019-05-12T04:59:34.521Z,3.00
2019-05-12T05:02:05.186Z,2.63
2019-05-12T05:04:34.530Z,2.80
2019-05-12T05:07:04.307Z,2.47
2019-05-12T05:09:30.984Z,2.97
2019-05-12T05:11:58.799Z,2.80
2019-05-12T05:14:26.598Z,2.80
2019-05-12T05:16:54.506Z,3.13
2019-05-12T05:19:24.337Z,3.10
2019-05-12T05:21:54.186Z,3.00
2019-05-12T05:24:23.522Z,2.60
2019-05-12T05:26:53.773Z,2.90
2019-05-12T05:29:21.148Z,3.10
2019-05-12T05:31:49.009Z,3.03
2019-05-12T05:34:16.866Z,2.97
2019-05-12T05:36:44.767Z,3.07
2019-05-12T05:39:13.938Z,2.60
2019-05-12T05:41:46.605Z,2.73
2019-05-12T05:44:13.799Z,2.80
2019-05-12T05:46:47.717Z,2.90
2019-05-12T05:49:13.186Z,3.10
2019-05-12T05:51:46.190Z,3.03
2019-05-12T05:54:10.409Z,3.03
2019-05-12T05:56:42.647Z,3.00
2019-05-12T05:59:08.291Z,2.57
2019-05-12T06:01:40.075Z,2.70
2019-05-12T06:04:08.645Z,2.80
2019-05-12T06:06:35.551Z,2.70
2019-05-12T06:09:05.963Z,2.90
2019-05-12T06:11:34.524Z,2.60
2019-05-12T06:14:11.130Z,2.90
2019-05-12T06:16:34.067Z,2.77
2019-05-12T06:19:03.508Z,3.17
2019-05-12T06:21:34.759Z,2.90
2019-05-12T06:24:03.347Z,2.90
2019-05-12T06:26:33.310Z,2.90
2019-05-12T06:29:00.522Z,2.90
2019-05-12T06:31:29.806Z,3.23
2019-05-12T06:33:57.957Z,3.17
2019-05-12T06:36:27.378Z,3.37
2019-05-12T06:38:55.357Z,2.67
2019-05-12T06:41:25.723Z,3.37
2019-05-12T06:43:56.090Z,2.77
2019-05-12T06:46:25.877Z,3.70
2019-05-12T06:48:54.366Z,3.27
2019-05-12T06:51:25.452Z,3.40
2019-05-12T06:53:53.445Z,3.17
2019-05-12T06:56:23.479Z,3.00
2019-05-12T06:58:53.341Z,3.40
2019-05-12T07:01:20.905Z,3.30
2019-05-12T07:03:48.805Z,3.90
2019-05-12T07:06:19.674Z,3.50
2019-05-12T07:08:46.255Z,3.10
2019-05-12T07:11:14.426Z,3.20
2019-05-12T07:13:43.627Z,2.97
2019-05-12T07:16:21.824Z,3.07
2019-05-12T07:18:46.501Z,3.10
2019-05-12T07:21:17.869Z,3.07
2019-05-12T07:23:44.468Z,3.00
2019-05-12T07:26:17.861Z,2.80
2019-05-12T07:28:43.351Z,3.10
2019-05-12T07:31:11.394Z,3.10
2019-05-12T07:33:41.843Z,2.73
2019-05-12T07:36:13.617Z,2.90
2019-05-12T07:38:46.313Z,2.97
2019-05-12T07:41:14.545Z,2.90
2019-05-12T07:43:44.870Z,2.63
2019-05-12T07:46:13.589Z,2.97
2019-05-12T07:48:46.562Z,3.27
2019-05-12T07:51:11.018Z,3.37
2019-05-12T07:53:38.784Z,2.77
2019-05-12T07:56:06.593Z,3.07
2019-05-12T07:58:34.362Z,2.77
2019-05-12T08:01:05.005Z,3.10
2019-05-12T08:03:34.395Z,2.90
2019-05-12T08:06:04.389Z,3.23
2019-05-12T08:08:31.336Z,3.10
2019-05-12T08:10:59.106Z,3.17
2019-05-12T08:13:31.163Z,2.90
2019-05-12T08:15:56.744Z,2.70
2019-05-12T08:18:24.785Z,4.20
2019-05-12T08:20:53.881Z,2.97
2019-05-12T08:23:23.462Z,3.10
2019-05-12T08:25:53.404Z,2.83
2019-05-12T08:28:27.899Z,2.63
2019-05-12T08:30:54.841Z,2.83
2019-05-12T08:33:23.901Z,3.03
2019-05-12T08:35:51.791Z,2.67
2019-05-12T08:38:19.581Z,2.90
2019-05-12T08:40:50.985Z,2.83
2019-05-12T08:43:17.157Z,2.83
2019-05-12T08:45:44.928Z,2.90
2019-05-12T08:48:17.077Z,2.73
2019-05-12T08:50:45.797Z,2.23
2019-05-12T08:53:20.299Z,2.83
2019-05-12T08:55:43.700Z,2.53
2019-05-12T08:58:28.217Z,2.13
2019-05-12T09:00:46.574Z,2.50
2019-05-12T09:03:13.699Z,2.20
2019-05-12T09:05:41.615Z,1.90
2019-05-12T09:08:10.012Z,2.10
2019-05-12T09:10:37.840Z,2.20
2019-05-12T09:13:05.690Z,2.67
2019-05-12T09:15:34.704Z,2.27
2019-05-12T09:18:04.755Z,2.17
2019-05-12T09:20:33.163Z,2.20
2019-05-12T09:23:02.743Z,2.50
2019-05-12T09:25:30.949Z,2.00
2019-05-12T09:27:58.804Z,2.10
2019-05-12T09:30:28.536Z,1.70
2019-05-12T09:32:56.482Z,2.20
2019-05-12T09:35:28.724Z,1.63
2019-05-12T09:37:54.093Z,2.30
2019-05-12T09:40:22.660Z,1.75
2019-05-12T09:42:53.312Z,1.80
2019-05-12T09:45:21.226Z,1.90
2019-05-12T09:47:49.006Z,1.80
2019-05-12T09:50:20.342Z,1.92
2019-05-12T09:52:51.127Z,1.50
2019-05-12T09:55:16.525Z,1.77
2019-05-12T09:57:45.116Z,1.40
2019-05-12T10:00:14.052Z,1.70
2019-05-12T10:02:43.620Z,1.50
2019-05-12T10:05:14.219Z,1.60
2019-05-12T10:07:41.441Z,1.30
2019-05-12T10:10:09.863Z,1.35
2019-05-12T10:12:45.120Z,1.30
2019-05-12T10:15:08.435Z,1.55
2019-05-12T10:17:36.220Z,1.60
2019-05-12T10:20:04.735Z,1.35
2019-05-12T10:22:39.970Z,1.10
2019-05-12T10:25:07.721Z,1.40
2019-05-12T10:27:35.731Z,1.22
2019-05-12T10:30:11.972Z,1.07
2019-05-12T10:32:34.893Z,1.32
2019-05-12T10:35:04.019Z,1.40
2019-05-12T10:37:31.873Z,1.40
2019-05-12T10:39:59.702Z,1.30
2019-05-12T10:42:27.529Z,1.10
2019-05-12T10:44:56.718Z,0.90
2019-05-12T10:47:24.797Z,0.82
2019-05-12T10:49:53.774Z,1.25
2019-05-12T10:52:21.695Z,1.47
2019-05-12T10:54:50.784Z,1.57
2019-05-12T10:57:18.650Z,1.25
2019-05-12T10:59:48.574Z,1.30
2019-05-12T11:02:20.301Z,1.27
2019-05-12T11:04:45.984Z,1.20
2019-05-12T11:07:13.850Z,1.10
2019-05-12T11:09:43.558Z,1.32
2019-05-12T11:12:13.738Z,1.20
2019-05-12T11:14:43.375Z,1.12
2019-05-12T11:17:13.827Z,1.00
2019-05-12T11:19:49.283Z,1.50
2019-05-12T11:22:13.768Z,1.00
2019-05-12T11:24:41.236Z,1.20
2019-05-12T11:27:09.080Z,1.20
2019-05-12T11:29:46.195Z,1.50
2019-05-12T11:32:06.686Z,1.20
2019-05-12T11:34:34.527Z,1.20
2019-05-12T11:37:03.453Z,1.10
2019-05-12T11:39:37.198Z,1.55
2019-05-12T11:42:01.070Z,1.35
2019-05-12T11:44:28.925Z,1.35
2019-05-12T11:46:56.746Z,1.37
2019-05-12T11:49:26.470Z,1.42
2019-05-12T11:51:54.555Z,1.52
2019-05-12T11:54:24.274Z,1.35
2019-05-12T11:56:53.498Z,1.40
2019-05-12T11:59:23.612Z,1.20
2019-05-12T12:01:54.000Z,1.30
2019-05-12T12:04:21.030Z,1.25
2019-05-12T12:06:48.856Z,1.12
2019-05-12T12:09:18.815Z,1.32
2019-05-12T12:11:46.357Z,1.02
2019-05-12T12:14:14.449Z,1.30
2019-05-12T12:16:50.114Z,1.37
2019-05-12T12:19:12.098Z,1.30
2019-05-12T12:21:40.409Z,1.20
2019-05-12T12:24:09.841Z,1.35
2019-05-12T12:26:37.753Z,1.50
2019-05-12T12:29:05.581Z,1.40
2019-05-12T12:32:02.047Z,1.32
2019-05-12T12:34:30.551Z,1.25
2019-05-12T12:36:58.455Z,1.45
2019-05-12T12:39:26.209Z,1.32
2019-05-12T12:42:00.166Z,1.37
2019-05-12T12:44:24.286Z,1.40
2019-05-12T12:46:59.840Z,1.12
2019-05-12T12:49:23.372Z,1.20
2019-05-12T12:51:51.291Z,1.45
2019-05-12T12:54:19.217Z,1.40
2019-05-12T12:56:47.037Z,1.30
2019-05-12T12:59:14.955Z,1.87
2019-05-12T13:01:44.253Z,1.20
2019-05-12T13:04:13.301Z,1.62
2019-05-12T13:06:43.589Z,1.22
2019-05-12T13:09:18.219Z,1.10
2019-05-12T13:11:40.617Z,1.32
2019-05-12T13:14:08.447Z,1.32
2019-05-12T13:16:37.609Z,1.20
2019-05-12T13:19:12.184Z,1.00
2019-05-12T13:21:35.294Z,1.20
2019-05-12T13:24:03.650Z,1.40
2019-05-12T13:26:31.549Z,1.00
2019-05-12T13:29:00.605Z,1.30
2019-05-12T13:31:28.396Z,1.20
2019-05-12T13:33:56.603Z,1.10
2019-05-12T13:36:29.315Z,1.00
2019-05-12T13:38:54.173Z,1.00
2019-05-12T13:41:21.991Z,1.10
2019-05-12T13:43:54.484Z,0.80
2019-05-12T13:46:19.595Z,1.15
2019-05-12T13:48:49.900Z,0.98
2019-05-12T13:51:19.234Z,1.20
2019-05-12T13:53:50.233Z,1.15
2019-05-12T13:56:19.441Z,1.00
2019-05-12T13:58:46.647Z,1.15
2019-05-12T14:01:19.365Z,1.10
2019-05-12T14:03:48.652Z,1.13
2019-05-12T14:06:14.055Z,1.27
2019-05-12T14:08:41.888Z,1.40
2019-05-12T14:11:09.641Z,1.30
2019-05-12T14:13:37.461Z,1.00
2019-05-12T14:16:06.662Z,1.30
2019-05-12T14:18:36.344Z,1.13
2019-05-12T14:21:04.419Z,1.33
2019-05-12T14:23:34.285Z,1.47
2019-05-12T14:26:07.438Z,1.40
2019-05-12T14:28:33.651Z,1.30
2019-05-12T14:31:01.606Z,1.00
2019-05-12T14:33:29.898Z,1.00
2019-05-12T14:35:59.135Z,1.30
2019-05-12T14:38:29.642Z,1.10
2019-05-12T14:41:01.251Z,1.10
2019-05-12T14:43:26.431Z,0.73
2019-05-12T14:45:54.322Z,1.10
2019-05-12T14:48:22.174Z,1.10
2019-05-12T14:50:49.976Z,1.30
2019-05-12T14:53:17.760Z,1.10
2019-05-12T14:55:45.532Z,1.20
2019-05-12T14:58:17.713Z,1.10
2019-05-12T15:00:44.575Z,0.90
2019-05-12T15:03:15.758Z,0.80
2019-05-12T15:05:47.197Z,1.10
2019-05-12T15:08:14.232Z,1.10
2019-05-12T15:10:41.830Z,1.30
2019-05-12T15:13:09.872Z,0.73
2019-05-12T15:15:37.855Z,1.00
2019-05-12T15:18:10.024Z,1.20
2019-05-12T15:20:35.749Z,1.00
2019-05-12T15:23:03.890Z,0.97
2019-05-12T15:25:35.503Z,1.00
2019-05-12T15:28:03.888Z,0.90
2019-05-12T15:30:33.589Z,1.10
2019-05-12T15:33:01.286Z,1.03
2019-05-12T15:35:29.136Z,0.90
2019-05-12T15:37:57.184Z,1.07
2019-05-12T15:40:25.246Z,0.87
2019-05-12T15:42:55.042Z,1.00
2019-05-12T15:45:23.809Z,1.03
2019-05-12T15:47:53.503Z,1.10
2019-05-12T15:50:23.160Z,0.87
2019-05-12T15:52:51.192Z,0.97
2019-05-12T15:55:25.625Z,0.90
2019-05-12T15:57:49.045Z,1.10
2019-05-12T16:00:17.299Z,1.00
2019-05-12T16:02:45.215Z,0.90
2019-05-12T16:05:14.552Z,0.93
2019-05-12T16:07:43.618Z,0.77
2019-05-12T16:10:14.477Z,0.90
2019-05-12T16:12:43.458Z,0.80
2019-05-12T16:15:17.220Z,1.00
2019-05-12T16:17:44.011Z,0.80
2019-05-12T16:20:14.255Z,0.90
2019-05-12T16:22:45.196Z,1.03
2019-05-12T16:25:14.820Z,1.00
2019-05-12T16:27:44.417Z,0.93
2019-05-12T16:30:13.840Z,0.90
2019-05-12T16:32:46.980Z,1.00
2019-05-12T16:35:14.116Z,0.83
2019-05-12T16:37:43.964Z,0.80
2019-05-12T16:40:13.737Z,0.87
2019-05-12T16:42:48.096Z,0.90
2019-05-12T16:45:13.931Z,1.20
2019-05-12T16:47:41.642Z,0.77
2019-05-12T16:50:15.194Z,0.87
2019-05-12T16:52:40.825Z,1.10
2019-05-12T16:55:09.598Z,0.83
2019-05-12T16:57:47.520Z,1.00
2019-05-12T17:00:07.748Z,1.00
2019-05-12T17:02:41.329Z,0.90
2019-05-12T17:05:14.849Z,1.30
2019-05-12T17:07:36.396Z,0.90
2019-05-12T17:10:11.758Z,0.80
2019-05-12T17:12:37.088Z,12.87
2019-05-12T17:15:04.406Z,0.90
2019-05-12T17:17:33.759Z,0.87
2019-05-12T17:20:01.717Z,0.90
2019-05-12T17:22:29.466Z,0.90
2019-05-12T17:24:57.320Z,0.80
2019-05-12T17:27:27.306Z,0.80
2019-05-12T17:29:54.838Z,0.70
2019-05-12T17:32:26.075Z,0.80
2019-05-12T17:34:53.843Z,0.90
2019-05-12T17:37:23.764Z,0.70
2019-05-12T17:39:51.277Z,0.93
2019-05-12T17:42:21.379Z,0.87
2019-05-12T17:44:48.945Z,1.00
2019-05-12T17:47:24.174Z,0.87
2019-05-12T17:49:50.007Z,1.10
2019-05-12T17:52:18.777Z,0.80
2019-05-12T17:54:46.671Z,3.30
2019-05-12T17:57:18.423Z,0.87
2019-05-12T17:59:44.817Z,0.97
2019-05-12T18:02:16.708Z,0.90
2019-05-12T18:04:43.743Z,0.83
2019-05-12T18:07:17.401Z,0.80
2019-05-12T18:09:44.023Z,1.00
2019-05-12T18:12:13.684Z,0.87
2019-05-12T18:14:46.804Z,0.80
2019-05-12T18:17:11.060Z,0.67
2019-05-12T18:19:38.928Z,1.00
2019-05-12T18:22:09.382Z,0.83
2019-05-12T18:24:40.846Z,1.00
2019-05-12T18:27:07.729Z,1.20
2019-05-12T18:29:35.794Z,0.90
2019-05-12T18:32:04.952Z,1.10
2019-05-12T18:34:34.009Z,1.10
2019-05-12T18:37:01.995Z,1.33
2019-05-12T18:39:29.823Z,1.33
2019-05-12T18:41:57.676Z,0.83
2019-05-12T18:44:31.137Z,1.03
2019-05-12T18:46:55.318Z,0.90
2019-05-12T18:49:23.932Z,1.07
2019-05-12T18:51:55.259Z,1.40
2019-05-12T18:54:24.282Z,0.97
2019-05-12T18:57:01.921Z,1.30
2019-05-12T18:59:21.478Z,1.20
2019-05-12T19:01:49.309Z,1.30
2019-05-12T19:04:17.218Z,1.00
2019-05-12T19:06:45.035Z,1.20
2019-05-12T19:09:13.764Z,0.93
2019-05-12T19:11:45.773Z,1.30
2019-05-12T19:14:13.444Z,1.67
2019-05-12T19:16:43.249Z,1.37
2019-05-12T19:19:18.414Z,1.00
2019-05-12T19:21:40.842Z,1.20
2019-05-12T19:24:14.282Z,1.00
2019-05-12T19:26:40.352Z,1.20
2019-05-12T19:29:08.196Z,1.40
2019-05-12T19:31:36.745Z,1.30
2019-05-12T19:34:18.347Z,1.33
2019-05-12T19:36:44.798Z,1.00
2019-05-12T19:39:07.619Z,1.20
2019-05-12T19:41:36.384Z,1.03
2019-05-12T19:44:05.132Z,1.60
2019-05-12T19:46:34.139Z,1.10
2019-05-12T19:49:04.301Z,1.30
2019-05-12T19:51:31.774Z,1.20
2019-05-12T19:53:59.634Z,1.30
2019-05-12T19:56:34.583Z,1.83
2019-05-12T19:58:57.158Z,1.50
2019-05-12T20:01:32.236Z,1.37
2019-05-12T20:03:55.526Z,1.20
2019-05-12T20:06:24.541Z,1.40
2019-05-12T20:08:54.071Z,1.50
2019-05-12T20:11:29.300Z,1.23
2019-05-12T20:13:53.815Z,1.23
2019-05-12T20:16:24.609Z,1.30
2019-05-12T20:18:55.070Z,1.40
2019-05-12T20:21:26.042Z,1.40
2019-05-12T20:23:50.684Z,1.20
2019-05-12T20:26:18.543Z,1.20
2019-05-12T20:28:50.596Z,1.33
2019-05-12T20:31:16.055Z,1.33
2019-05-12T20:33:43.895Z,1.40
2019-05-12T20:36:14.118Z,1.47
2019-05-12T20:38:41.543Z,1.50
2019-05-12T20:41:10.989Z,1.40
2019-05-12T20:43:41.270Z,1.30
2019-05-12T20:46:15.442Z,1.43
2019-05-12T20:48:38.639Z,1.40
2019-05-12T20:51:08.615Z,1.10
2019-05-12T20:53:37.021Z,1.10
2019-05-12T20:56:04.917Z,1.40
2019-05-12T20:58:35.253Z,1.40
2019-05-12T21:01:05.177Z,1.57
2019-05-12T21:03:33.580Z,1.33
2019-05-12T21:06:04.167Z,1.50
2019-05-12T21:08:31.266Z,1.80
2019-05-12T21:10:59.079Z,1.63
2019-05-12T21:13:31.674Z,1.40
2019-05-12T21:15:56.706Z,1.57
2019-05-12T21:18:24.612Z,1.30
2019-05-12T21:20:54.712Z,1.63
2019-05-12T21:23:24.097Z,1.50
2019-05-12T21:25:55.874Z,1.40
2019-05-12T21:28:23.660Z,1.50
2019-05-12T21:30:53.066Z,1.40
2019-05-12T21:33:21.041Z,1.33
2019-05-12T21:35:48.882Z,1.47
2019-05-12T21:38:18.936Z,1.60
2019-05-12T21:40:46.436Z,1.53
2019-05-12T21:43:14.307Z,1.97
2019-05-12T21:45:42.134Z,1.40
2019-05-12T21:48:15.205Z,1.50
2019-05-12T21:50:39.648Z,1.50
2019-05-12T21:53:10.321Z,1.63
2019-05-12T21:55:37.259Z,1.33
2019-05-12T21:58:10.596Z,1.63
2019-05-12T22:00:41.510Z,1.40
2019-05-12T22:03:14.709Z,1.30
2019-05-12T22:05:50.617Z,1.40
2019-05-12T22:08:17.273Z,1.50
2019-05-12T22:10:40.416Z,1.50
2019-05-12T22:13:14.433Z,1.40
2019-05-12T22:15:38.302Z,1.33
2019-05-12T22:18:06.126Z,1.40
2019-05-12T22:20:35.070Z,1.40
2019-05-12T22:23:11.816Z,1.50
2019-05-12T22:25:34.497Z,1.60
2019-05-12T22:28:05.376Z,1.50
2019-05-12T22:30:34.569Z,1.50
2019-05-12T22:33:08.590Z,1.70
2019-05-12T22:35:33.634Z,1.53
2019-05-12T22:38:03.915Z,1.53
2019-05-12T22:40:31.262Z,1.80
2019-05-12T22:43:01.243Z,1.43
2019-05-12T22:45:28.780Z,1.43
2019-05-12T22:47:59.060Z,1.47
2019-05-12T22:50:27.118Z,1.30
2019-05-12T22:52:56.030Z,1.47
2019-05-12T22:55:30.752Z,1.43
2019-05-12T22:57:53.613Z,1.63
2019-05-12T23:00:24.240Z,1.53
2019-05-12T23:02:53.687Z,1.80
2019-05-12T23:05:21.586Z,1.50
2019-05-12T23:07:49.446Z,1.40
2019-05-12T23:10:17.249Z,1.47
2019-05-12T23:12:45.055Z,1.80
2019-05-12T23:15:13.786Z,1.67
2019-05-12T23:17:45.191Z,1.60
2019-05-12T23:20:13.810Z,1.80
2019-05-12T23:22:43.674Z,1.53
2019-05-12T23:25:19.508Z,1.90
2019-05-12T23:27:44.047Z,1.93
2019-05-12T23:30:12.781Z,2.00
2019-05-12T23:32:42.914Z,1.60
2019-05-12T23:35:10.492Z,1.50
2019-05-12T23:37:40.135Z,1.50
2019-05-12T23:40:11.530Z,1.60
2019-05-12T23:42:37.983Z,1.50
2019-05-12T23:45:06.037Z,1.90
2019-05-12T23:47:34.423Z,1.80
2019-05-12T23:50:04.046Z,1.87
2019-05-12T23:52:34.491Z,1.53
2019-05-12T23:55:01.745Z,1.70
2019-05-12T23:57:29.681Z,1.83
2019-05-12T23:59:57.481Z,1.80
